Time;durP1;ratioP1;P1;durP2;ratioP2;P2;SDS_P1;SDS_P2;PMS_P1;PMS_P2;Temp;Humidity;BMP_temperature;BMP_pressure;BME280_temperature;BME280_humidity;BME280_pressure;Samples;Min_cycle;Max_cycle;Signal;HPM_P1;HPM_P2
2022/11/30 00:01:52;;;;;;;;;;;7.00;99.90;;;;;;5024305;28;1165;-63
2022/11/30 00:04:18;;;;;;;;;;;7.00;99.90;;;;;;5010062;28;1418;-64
2022/11/30 00:06:43;;;;;;;;;;;6.90;99.90;;;;;;5012269;28;1173;-64
2022/11/30 00:09:10;;;;;;;;;;;6.90;99.90;;;;;;5024831;28;1112;-63
2022/11/30 00:11:35;;;;;;;;;;;7.10;99.90;;;;;;5029817;28;1423;-64
2022/11/30 00:14:01;;;;;;;;;;;6.90;99.90;;;;;;5021686;28;2118;-63
2022/11/30 00:16:27;;;;;;;;;;;6.90;99.90;;;;;;5024012;28;2068;-63
2022/11/30 00:18:52;;;;;;;;;;;7.00;99.90;;;;;;5018252;28;1071;-63
2022/11/30 00:21:18;;;;;;;;;;;7.00;99.90;;;;;;5030252;28;1031;-63
2022/11/30 00:23:44;;;;;;;;;;;7.00;99.90;;;;;;5030537;28;1094;-64
2022/11/30 00:26:11;;;;;;;;;;;7.10;99.90;;;;;;5022651;28;1118;-63
2022/11/30 00:28:37;;;;;;;;;;;7.20;99.90;;;;;;5030258;28;1098;-63
2022/11/30 00:31:05;;;;;;;;;;;7.20;99.90;;;;;;5030075;28;1129;-63
2022/11/30 00:33:31;;;;;;;;;;;7.30;99.90;;;;;;5030022;28;1275;-63
2022/11/30 00:35:58;;;;;;;;;;;7.30;99.90;;;;;;5010783;28;1916;-63
2022/11/30 00:38:24;;;;;;;;;;;7.30;99.90;;;;;;5030182;28;1910;-64
2022/11/30 00:40:50;;;;;;;;;;;7.30;99.90;;;;;;5020185;28;1125;-63
2022/11/30 00:43:16;;;;;;;;;;;7.30;99.90;;;;;;5010340;28;1158;-63
2022/11/30 00:45:41;;;;;;;;;;;7.40;99.90;;;;;;5016231;28;1023;-63
2022/11/30 00:48:07;;;;;;;;;;;7.40;99.90;;;;;;5007555;28;2750;-63
2022/11/30 00:50:33;;;;;;;;;;;7.40;99.90;;;;;;5010485;28;1000;-63
2022/11/30 00:52:59;;;;;;;;;;;7.40;99.90;;;;;;5009507;28;1238;-63
2022/11/30 00:55:26;;;;;;;;;;;7.40;99.90;;;;;;5011301;28;1260;-63
2022/11/30 00:57:52;;;;;;;;;;;7.30;99.90;;;;;;5011937;28;1919;-63
2022/11/30 01:00:18;;;;;;;;;;;7.40;99.90;;;;;;5009611;28;1193;-63
2022/11/30 01:02:44;;;;;;;;;;;7.30;99.90;;;;;;5009717;28;1196;-63
2022/11/30 01:05:10;;;;;;;;;;;7.20;99.90;;;;;;5009590;28;1106;-63
2022/11/30 01:07:36;;;;;;;;;;;7.20;99.90;;;;;;5017799;28;1130;-63
2022/11/30 01:10:01;;;;;;;;;;;7.20;99.90;;;;;;5026023;28;1177;-63
2022/11/30 01:12:27;;;;;;;;;;;7.20;99.90;;;;;;5029359;28;1102;-63
2022/11/30 01:14:53;;;;;;;;;;;7.30;99.90;;;;;;5014868;28;2046;-63
2022/11/30 01:17:18;;;;;;;;;;;7.30;99.90;;;;;;5029585;28;1910;-63
2022/11/30 01:19:44;;;;;;;;;;;7.30;99.90;;;;;;5018127;28;1110;-63
2022/11/30 01:22:10;;;;;;;;;;;7.30;99.90;;;;;;5029033;28;1074;-63
2022/11/30 01:24:35;;;;;;;;;;;7.30;99.90;;;;;;5029177;28;1117;-63
2022/11/30 01:27:01;;;;;;;;;;;7.50;99.90;;;;;;5028856;28;1043;-63
2022/11/30 01:29:26;;;;;;;;;;;7.30;99.90;;;;;;5023236;28;1148;-63
2022/11/30 01:31:52;;;;;;;;;;;7.50;99.90;;;;;;5012017;28;1143;-63
2022/11/30 01:34:19;;;;;;;;;;;7.30;99.90;;;;;;5009179;28;1158;-63
2022/11/30 01:36:44;;;;;;;;;;;7.40;99.90;;;;;;5008679;28;1914;-63
2022/11/30 01:39:10;;;;;;;;;;;7.20;99.90;;;;;;5005808;28;1119;-63
2022/11/30 01:41:36;;;;;;;;;;;7.30;99.90;;;;;;5029052;28;1118;-63
2022/11/30 01:44:04;;;;;;;;;;;7.20;99.90;;;;;;5028730;28;1115;-63
2022/11/30 01:46:30;;;;;;;;;;;7.20;99.90;;;;;;5008370;28;1264;-63
2022/11/30 01:48:59;;;;;;;;;;;7.10;99.90;;;;;;5011520;28;1285;-63
2022/11/30 01:51:27;;;;;;;;;;;7.10;99.90;;;;;;5012777;28;1276;-63
2022/11/30 01:53:53;;;;;;;;;;;7.00;99.90;;;;;;5012637;28;1209;-63
2022/11/30 01:56:18;;;;;;;;;;;7.00;99.90;;;;;;5012228;28;2050;-63
2022/11/30 01:58:44;;;;;;;;;;;7.00;99.90;;;;;;5028158;28;1934;-63
2022/11/30 02:01:10;;;;;;;;;;;6.90;99.90;;;;;;5022721;28;1081;-63
2022/11/30 02:03:36;;;;;;;;;;;6.90;99.90;;;;;;5018341;28;1242;-63
2022/11/30 02:06:02;;;;;;;;;;;6.90;99.90;;;;;;5031223;28;1114;-63
2022/11/30 02:08:29;;;;;;;;;;;6.80;99.90;;;;;;5013135;28;1182;-63
2022/11/30 02:10:57;;;;;;;;;;;6.90;99.90;;;;;;4994684;28;1131;-63
2022/11/30 02:13:23;;;;;;;;;;;6.80;99.90;;;;;;4995448;28;2003;-63
2022/11/30 02:15:54;;;;;;;;;;;6.80;99.90;;;;;;5022597;28;1654;-63
2022/11/30 02:18:31;;;;;;;;;;;6.80;99.90;;;;;;5031888;28;1910;-63
2022/11/30 02:21:01;;;;;;;;;;;6.80;99.90;;;;;;5021689;28;1114;-63
2022/11/30 02:23:37;;;;;;;;;;;6.70;99.90;;;;;;5012590;28;1070;-63
2022/11/30 02:26:09;;;;;;;;;;;6.80;99.90;;;;;;5012227;28;1233;-63
2022/11/30 02:28:55;;;;;;;;;;;6.90;99.90;;;;;;5012918;28;1134;-63
2022/11/30 02:31:24;;;;;;;;;;;6.90;99.90;;;;;;5029805;28;1132;-63
2022/11/30 02:33:50;;;;;;;;;;;6.90;99.90;;;;;;5031701;28;1133;-63
2022/11/30 02:36:16;;;;;;;;;;;7.00;99.90;;;;;;5014571;28;1130;-63
2022/11/30 02:38:42;;;;;;;;;;;7.00;99.90;;;;;;5024697;28;1918;-63
2022/11/30 02:41:08;;;;;;;;;;;7.00;99.90;;;;;;5016897;28;1142;-63
2022/11/30 02:43:34;;;;;;;;;;;6.90;99.90;;;;;;5032535;28;1067;-63
2022/11/30 02:46:06;;;;;;;;;;;6.90;99.90;;;;;;5019825;28;1133;-63
2022/11/30 02:48:42;;;;;;;;;;;6.90;99.90;;;;;;5023911;28;1116;-63
2022/11/30 02:51:09;;;;;;;;;;;6.90;99.90;;;;;;5032319;28;1158;-63
2022/11/30 02:53:35;;;;;;;;;;;6.80;99.90;;;;;;5016540;28;1320;-63
2022/11/30 02:56:01;;;;;;;;;;;6.80;99.90;;;;;;5011859;28;1099;-63
2022/11/30 02:58:26;;;;;;;;;;;6.80;99.90;;;;;;5007937;28;1914;-63
2022/11/30 03:00:52;;;;;;;;;;;6.70;99.90;;;;;;5003257;28;1069;-63
2022/11/30 03:03:18;;;;;;;;;;;6.60;99.90;;;;;;5018036;28;1340;-63
2022/11/30 03:05:43;;;;;;;;;;;6.70;99.90;;;;;;5018076;28;1112;-63
2022/11/30 03:08:09;;;;;;;;;;;6.70;99.90;;;;;;5012310;28;1112;-63
2022/11/30 03:10:34;;;;;;;;;;;6.70;99.90;;;;;;5011887;28;1173;-63
2022/11/30 03:13:00;;;;;;;;;;;6.70;99.90;;;;;;5011928;28;1932;-63
2022/11/30 03:15:26;;;;;;;;;;;6.60;99.90;;;;;;5011184;28;1122;-63
2022/11/30 03:17:52;;;;;;;;;;;6.70;99.90;;;;;;5011615;28;1912;-63
2022/11/30 03:20:17;;;;;;;;;;;6.70;99.90;;;;;;5011610;28;1084;-63
2022/11/30 03:22:43;;;;;;;;;;;6.70;99.90;;;;;;4993636;28;1103;-63
2022/11/30 03:25:09;;;;;;;;;;;6.70;99.90;;;;;;5031141;28;1173;-63
2022/11/30 03:27:34;;;;;;;;;;;6.70;99.90;;;;;;5031627;28;1141;-63
2022/11/30 03:30:00;;;;;;;;;;;6.80;99.90;;;;;;5031074;28;1158;-63
2022/11/30 03:32:26;;;;;;;;;;;6.70;99.90;;;;;;5019188;28;1169;-63
2022/11/30 03:34:52;;;;;;;;;;;6.80;99.90;;;;;;5030513;28;1278;-63
2022/11/30 03:37:17;;;;;;;;;;;6.80;99.90;;;;;;5031560;28;1914;-63
2022/11/30 03:39:43;;;;;;;;;;;6.80;99.90;;;;;;5031423;28;1129;-63
2022/11/30 03:42:09;;;;;;;;;;;6.80;99.90;;;;;;5024047;28;1200;-63
2022/11/30 03:44:34;;;;;;;;;;;6.80;99.90;;;;;;5031706;28;1173;-63
2022/11/30 03:47:00;;;;;;;;;;;6.70;99.90;;;;;;4986738;28;1202;-63
2022/11/30 03:49:26;;;;;;;;;;;6.70;99.90;;;;;;5010339;28;1159;-63
2022/11/30 03:51:51;;;;;;;;;;;6.70;99.90;;;;;;5011439;28;1036;-63
2022/11/30 03:54:17;;;;;;;;;;;6.60;99.90;;;;;;5011378;28;1083;-63
2022/11/30 03:56:42;;;;;;;;;;;6.60;99.90;;;;;;4992742;28;1907;-63
2022/11/30 03:59:08;;;;;;;;;;;6.60;99.90;;;;;;5013095;28;1158;-63
2022/11/30 04:01:35;;;;;;;;;;;6.60;99.90;;;;;;5023230;28;1064;-63
2022/11/30 04:04:01;;;;;;;;;;;6.60;99.90;;;;;;5010439;28;1081;-63
2022/11/30 04:06:27;;;;;;;;;;;6.70;99.90;;;;;;4993100;28;1127;-63
2022/11/30 04:08:52;;;;;;;;;;;6.80;99.90;;;;;;5012097;28;1608;-63
2022/11/30 04:11:18;;;;;;;;;;;6.70;99.90;;;;;;5029209;28;1173;-63
2022/11/30 04:13:43;;;;;;;;;;;6.70;99.90;;;;;;5024374;28;1698;-63
2022/11/30 04:16:09;;;;;;;;;;;6.70;99.90;;;;;;5010441;28;1075;-63
2022/11/30 04:18:35;;;;;;;;;;;6.70;99.90;;;;;;5029112;28;1980;-63
2022/11/30 04:21:01;;;;;;;;;;;6.70;99.90;;;;;;5030653;28;1097;-63
2022/11/30 04:23:29;;;;;;;;;;;6.70;99.90;;;;;;5030463;28;1134;-63
2022/11/30 04:25:55;;;;;;;;;;;6.80;99.90;;;;;;5027453;28;1128;-63
2022/11/30 04:28:21;;;;;;;;;;;6.80;99.90;;;;;;5030514;28;975;-63
2022/11/30 04:30:46;;;;;;;;;;;6.80;99.90;;;;;;5030208;28;1121;-63
2022/11/30 04:33:13;;;;;;;;;;;6.80;99.90;;;;;;5027150;28;1161;-63
2022/11/30 04:35:42;;;;;;;;;;;6.80;99.90;;;;;;5024248;28;1126;-63
2022/11/30 04:38:08;;;;;;;;;;;6.80;99.90;;;;;;5029928;28;2343;-63
2022/11/30 04:40:33;;;;;;;;;;;6.80;99.90;;;;;;5012084;28;1106;-63
2022/11/30 04:42:59;;;;;;;;;;;6.90;99.90;;;;;;5020911;28;1272;-62
2022/11/30 04:45:24;;;;;;;;;;;6.90;99.90;;;;;;5008697;28;1118;-63
2022/11/30 04:47:50;;;;;;;;;;;6.80;99.90;;;;;;5000075;28;1252;-63
2022/11/30 04:50:16;;;;;;;;;;;6.80;99.90;;;;;;5010657;28;1285;-63
2022/11/30 04:52:41;;;;;;;;;;;6.70;99.90;;;;;;5010488;28;1130;-62
2022/11/30 04:55:07;;;;;;;;;;;6.60;99.90;;;;;;5009580;28;1400;-62
2022/11/30 04:57:33;;;;;;;;;;;6.50;99.90;;;;;;5009940;28;2012;-63
2022/11/30 04:59:59;;;;;;;;;;;6.40;99.90;;;;;;5009307;28;1201;-63
2022/11/30 05:02:27;;;;;;;;;;;6.40;99.90;;;;;;5022718;28;1172;-63
2022/11/30 05:04:53;;;;;;;;;;;6.40;99.90;;;;;;5009758;28;1190;-63
2022/11/30 05:07:19;;;;;;;;;;;6.40;99.90;;;;;;5015817;28;1110;-63
2022/11/30 05:09:44;;;;;;;;;;;6.30;99.90;;;;;;5017448;28;1102;-63
2022/11/30 05:12:10;;;;;;;;;;;6.30;99.90;;;;;;5028975;28;1118;-63
2022/11/30 05:14:35;;;;;;;;;;;6.40;99.90;;;;;;5016111;28;2102;-63
2022/11/30 05:17:01;;;;;;;;;;;6.30;99.90;;;;;;5028702;28;1975;-62
2022/11/30 05:19:27;;;;;;;;;;;6.40;99.90;;;;;;5023482;28;1195;-63
2022/11/30 05:21:52;;;;;;;;;;;6.40;99.90;;;;;;5028756;28;1164;-63
2022/11/30 05:24:18;;;;;;;;;;;6.40;99.90;;;;;;5029035;28;1197;-63
2022/11/30 05:26:43;;;;;;;;;;;6.40;99.90;;;;;;5005474;28;1177;-63
2022/11/30 05:29:09;;;;;;;;;;;6.60;99.90;;;;;;5021780;28;1107;-63
2022/11/30 05:31:37;;;;;;;;;;;6.40;99.90;;;;;;5029089;28;1146;-63
2022/11/30 05:34:02;;;;;;;;;;;6.40;99.90;;;;;;5029473;28;1106;-63
2022/11/30 05:36:28;;;;;;;;;;;6.40;99.90;;;;;;5021399;28;1161;-63
2022/11/30 05:38:53;;;;;;;;;;;6.30;99.90;;;;;;5004718;28;1906;-63
2022/11/30 05:41:19;;;;;;;;;;;6.20;99.90;;;;;;5009282;28;1083;-63
2022/11/30 05:43:45;;;;;;;;;;;6.30;99.90;;;;;;5008644;28;1439;-63
2022/11/30 05:46:10;;;;;;;;;;;7.30;99.90;;;;;;5009207;28;1118;-63
2022/11/30 05:48:36;;;;;;;;;;;6.40;99.90;;;;;;5008667;28;1174;-63
2022/11/30 05:51:09;;;;;;;;;;;6.40;99.90;;;;;;5009624;28;1130;-63
2022/11/30 05:53:35;;;;;;;;;;;6.50;99.90;;;;;;5008698;28;1035;-63
2022/11/30 05:56:03;;;;;;;;;;;6.40;99.90;;;;;;4995375;28;1091;-63
2022/11/30 05:58:28;;;;;;;;;;;6.50;99.90;;;;;;5009365;28;1914;-63
2022/11/30 06:00:54;;;;;;;;;;;6.50;99.90;;;;;;5016000;28;1173;-63
2022/11/30 06:03:20;;;;;;;;;;;6.50;99.90;;;;;;4996216;28;2231;-63
2022/11/30 06:05:48;;;;;;;;;;;6.60;99.90;;;;;;5008928;28;1170;-63
2022/11/30 06:08:14;;;;;;;;;;;6.50;99.90;;;;;;5022854;28;1059;-63
2022/11/30 06:10:39;;;;;;;;;;;6.50;99.90;;;;;;5024887;28;1157;-63
2022/11/30 06:13:07;;;;;;;;;;;6.50;99.90;;;;;;4997763;28;1892;-63
2022/11/30 06:15:32;;;;;;;;;;;6.40;99.90;;;;;;5015764;28;1666;-63
2022/11/30 06:17:58;;;;;;;;;;;6.40;99.90;;;;;;5028345;28;1973;-63
2022/11/30 06:20:23;;;;;;;;;;;6.30;99.90;;;;;;5025316;28;1132;-63
2022/11/30 06:22:49;;;;;;;;;;;6.40;99.90;;;;;;5028202;28;947;-63
2022/11/30 06:25:15;;;;;;;;;;;6.40;99.90;;;;;;5010614;28;1158;-63
2022/11/30 06:27:42;;;;;;;;;;;6.40;99.90;;;;;;5028650;28;1174;-63
2022/11/30 06:30:08;;;;;;;;;;;6.40;99.90;;;;;;5008651;28;1175;-63
2022/11/30 06:32:34;;;;;;;;;;;6.40;99.90;;;;;;5008695;28;1115;-63
2022/11/30 06:34:59;;;;;;;;;;;6.40;99.90;;;;;;5011484;28;1219;-63
2022/11/30 06:37:26;;;;;;;;;;;6.50;99.90;;;;;;5012212;28;1910;-63
2022/11/30 06:39:51;;;;;;;;;;;6.30;99.90;;;;;;5031668;28;1220;-63
2022/11/30 06:42:18;;;;;;;;;;;6.50;99.90;;;;;;5032471;28;1039;-63
2022/11/30 06:44:44;;;;;;;;;;;6.40;99.90;;;;;;5030507;28;1110;-63
2022/11/30 06:47:10;;;;;;;;;;;5.80;99.90;;;;;;5011753;28;1220;-63
2022/11/30 06:49:36;;;;;;;;;;;6.30;99.90;;;;;;5012374;28;1139;-63
2022/11/30 06:52:01;;;;;;;;;;;6.30;99.90;;;;;;5011598;28;1118;-63
2022/11/30 06:54:27;;;;;;;;;;;6.30;99.90;;;;;;5011813;28;1142;-63
2022/11/30 06:56:53;;;;;;;;;;;6.30;99.90;;;;;;5024834;28;1942;-63
2022/11/30 06:59:18;;;;;;;;;;;6.20;99.90;;;;;;5026198;28;1244;-63
2022/11/30 07:01:44;;;;;;;;;;;6.20;99.90;;;;;;5021166;28;1157;-63
2022/11/30 07:04:09;;;;;;;;;;;6.20;99.90;;;;;;5011360;28;1154;-63
2022/11/30 07:06:35;;;;;;;;;;;6.40;99.90;;;;;;5017025;28;1133;-63
2022/11/30 07:09:01;;;;;;;;;;;6.20;99.90;;;;;;4993933;28;2025;-63
2022/11/30 07:11:26;;;;;;;;;;;6.30;99.90;;;;;;5011722;28;1178;-63
2022/11/30 07:13:52;;;;;;;;;;;6.20;99.90;;;;;;5010566;28;1781;-63
2022/11/30 07:16:18;;;;;;;;;;;6.20;99.90;;;;;;5011764;28;1233;-63
2022/11/30 07:18:43;;;;;;;;;;;6.30;99.90;;;;;;5008681;28;2001;-63
2022/11/30 07:21:09;;;;;;;;;;;6.30;99.90;;;;;;5012522;28;1209;-63
2022/11/30 07:26:19;;;;;;;;;;;6.20;99.90;;;;;;5010407;28;1198;-63
2022/11/30 07:28:45;;;;;;;;;;;6.50;99.90;;;;;;5012701;28;1229;-63
2022/11/30 07:31:13;;;;;;;;;;;6.30;99.90;;;;;;5005426;28;1340;-63
2022/11/30 07:33:39;;;;;;;;;;;6.30;99.90;;;;;;5009761;28;1112;-63
2022/11/30 07:36:05;;;;;;;;;;;6.40;99.90;;;;;;5011878;28;1261;-63
2022/11/30 07:38:31;;;;;;;;;;;6.40;99.90;;;;;;5012686;28;1915;-63
2022/11/30 07:40:57;;;;;;;;;;;6.60;99.90;;;;;;4995713;28;3229;-63
2022/11/30 07:43:22;;;;;;;;;;;6.50;99.90;;;;;;5010606;28;1106;-63
2022/11/30 07:45:54;;;;;;;;;;;6.50;99.90;;;;;;5012339;28;3194;-63
2022/11/30 07:48:20;;;;;;;;;;;6.50;99.90;;;;;;5000771;28;1140;-63
2022/11/30 07:50:46;;;;;;;;;;;6.60;99.90;;;;;;5010890;28;1087;-63
2022/11/30 07:53:12;;;;;;;;;;;6.50;99.90;;;;;;5010749;28;1276;-63
2022/11/30 07:55:38;;;;;;;;;;;6.50;99.90;;;;;;5021995;28;1158;-63
2022/11/30 07:58:03;;;;;;;;;;;6.60;99.90;;;;;;5007893;28;3617;-63
2022/11/30 08:00:29;;;;;;;;;;;6.60;99.90;;;;;;5011887;28;3230;-63
2022/11/30 08:02:55;;;;;;;;;;;6.60;99.90;;;;;;5010207;28;1284;-63
2022/11/30 08:05:22;;;;;;;;;;;6.70;99.90;;;;;;5010131;28;3293;-63
2022/11/30 08:07:49;;;;;;;;;;;6.70;99.90;;;;;;5010277;28;1085;-63
2022/11/30 08:10:15;;;;;;;;;;;6.70;99.90;;;;;;5026855;28;1200;-63
2022/11/30 08:12:40;;;;;;;;;;;6.70;99.90;;;;;;5030901;28;1066;-63
2022/11/30 08:15:06;;;;;;;;;;;6.70;99.90;;;;;;5012144;28;2393;-63
2022/11/30 08:17:32;;;;;;;;;;;6.70;99.90;;;;;;5009498;28;3063;-63
2022/11/30 08:19:57;;;;;;;;;;;6.70;99.90;;;;;;5010751;28;1192;-63
2022/11/30 08:22:23;;;;;;;;;;;6.70;99.90;;;;;;5010413;28;1211;-63
2022/11/30 08:24:49;;;;;;;;;;;6.80;99.90;;;;;;5013867;28;1122;-63
2022/11/30 08:27:14;;;;;;;;;;;7.00;99.90;;;;;;5016953;28;1121;-63
2022/11/30 08:29:40;;;;;;;;;;;6.80;99.90;;;;;;5010065;28;1174;-63
2022/11/30 08:32:05;;;;;;;;;;;6.80;99.90;;;;;;5009501;28;1091;-63
2022/11/30 08:34:31;;;;;;;;;;;6.70;99.90;;;;;;5009865;28;1385;-63
2022/11/30 08:36:57;;;;;;;;;;;6.60;99.90;;;;;;5020123;28;1971;-63
2022/11/30 08:39:22;;;;;;;;;;;6.70;99.90;;;;;;5025822;28;1176;-63
2022/11/30 08:41:48;;;;;;;;;;;6.70;99.90;;;;;;5009832;28;1098;-63
2022/11/30 08:44:14;;;;;;;;;;;6.70;99.90;;;;;;4992171;28;1747;-63
2022/11/30 08:46:39;;;;;;;;;;;6.70;99.90;;;;;;5009356;28;1237;-63
2022/11/30 08:49:05;;;;;;;;;;;6.70;99.90;;;;;;5011372;28;1237;-64
2022/11/30 08:51:31;;;;;;;;;;;6.70;99.90;;;;;;5007758;28;2298;-64
2022/11/30 08:53:57;;;;;;;;;;;6.70;99.90;;;;;;5009988;28;2258;-64
2022/11/30 08:56:22;;;;;;;;;;;6.70;99.90;;;;;;5009735;28;1032;-64
2022/11/30 08:58:48;;;;;;;;;;;6.70;99.90;;;;;;5011418;28;1954;-64
2022/11/30 09:01:19;;;;;;;;;;;6.70;99.90;;;;;;5019561;28;1091;-63
2022/11/30 09:03:45;;;;;;;;;;;6.70;99.90;;;;;;5012173;28;1137;-64
2022/11/30 09:06:13;;;;;;;;;;;6.60;99.90;;;;;;4991396;28;1061;-64
2022/11/30 09:08:40;;;;;;;;;;;6.60;99.90;;;;;;5014846;28;1834;-64
2022/11/30 09:11:07;;;;;;;;;;;6.70;99.90;;;;;;5029398;28;928;-64
2022/11/30 09:13:32;;;;;;;;;;;6.60;99.90;;;;;;5024226;28;1817;-64
2022/11/30 09:15:58;;;;;;;;;;;6.60;99.90;;;;;;5020377;28;1301;-64
2022/11/30 09:18:24;;;;;;;;;;;6.70;99.90;;;;;;5009639;28;1973;-64
2022/11/30 09:20:49;;;;;;;;;;;6.70;99.90;;;;;;5019939;28;1091;-64
2022/11/30 09:23:15;;;;;;;;;;;6.70;99.90;;;;;;5029514;28;1181;-64
2022/11/30 09:25:40;;;;;;;;;;;6.80;99.90;;;;;;5012934;28;2091;-64
2022/11/30 09:28:06;;;;;;;;;;;6.80;99.90;;;;;;5012033;28;1106;-64
2022/11/30 09:30:32;;;;;;;;;;;6.90;99.90;;;;;;5011135;28;1221;-64
2022/11/30 09:32:59;;;;;;;;;;;6.90;99.90;;;;;;5011600;28;1232;-63
2022/11/30 09:35:25;;;;;;;;;;;7.00;99.90;;;;;;5008713;28;1277;-64
2022/11/30 09:37:51;;;;;;;;;;;7.00;99.90;;;;;;5010149;28;1970;-64
2022/11/30 09:40:18;;;;;;;;;;;7.10;99.90;;;;;;5009661;28;1090;-64
2022/11/30 09:42:49;;;;;;;;;;;7.10;99.90;;;;;;4990796;28;1205;-64
2022/11/30 09:45:21;;;;;;;;;;;7.10;99.90;;;;;;5014581;28;1173;-64
2022/11/30 09:47:54;;;;;;;;;;;7.10;99.90;;;;;;5008759;28;1213;-64
2022/11/30 09:50:21;;;;;;;;;;;7.00;99.90;;;;;;5008572;28;1238;-64
2022/11/30 09:52:49;;;;;;;;;;;7.00;99.90;;;;;;5010197;28;1102;-64
2022/11/30 09:55:21;;;;;;;;;;;7.00;99.90;;;;;;5010733;28;1339;-64
2022/11/30 09:57:51;;;;;;;;;;;7.00;99.90;;;;;;5008695;28;1989;-64
2022/11/30 10:00:20;;;;;;;;;;;7.00;99.90;;;;;;5010819;28;2152;-64
2022/11/30 10:02:47;;;;;;;;;;;6.90;99.90;;;;;;4997497;28;1252;-64
2022/11/30 10:05:15;;;;;;;;;;;6.80;99.90;;;;;;5011292;28;1162;-64
2022/11/30 10:07:40;;;;;;;;;;;6.80;99.90;;;;;;4996281;28;1108;-64
2022/11/30 10:10:13;;;;;;;;;;;6.80;99.90;;;;;;5013241;28;1117;-64
2022/11/30 10:12:42;;;;;;;;;;;6.80;99.90;;;;;;5032707;28;1109;-64
2022/11/30 10:15:13;;;;;;;;;;;6.60;99.90;;;;;;5019321;28;2142;-64
2022/11/30 10:17:48;;;;;;;;;;;6.80;99.90;;;;;;5008462;28;3246;-64
2022/11/30 10:20:33;;;;;;;;;;;6.90;99.90;;;;;;5011862;28;3246;-64
2022/11/30 10:23:05;;;;;;;;;;;6.90;99.90;;;;;;5013805;28;2018;-64
2022/11/30 10:25:51;;;;;;;;;;;7.00;99.90;;;;;;5014741;28;3455;-64
2022/11/30 10:28:20;;;;;;;;;;;7.00;99.90;;;;;;5018218;28;1118;-64
2022/11/30 10:30:46;;;;;;;;;;;7.10;99.90;;;;;;5032035;28;1173;-64
2022/11/30 10:33:15;;;;;;;;;;;7.10;99.90;;;;;;5032339;28;1083;-64
2022/11/30 10:35:43;;;;;;;;;;;7.10;99.90;;;;;;5014535;28;1118;-64
2022/11/30 10:38:12;;;;;;;;;;;7.10;99.90;;;;;;5011862;28;1910;-64
2022/11/30 10:40:48;;;;;;;;;;;7.10;99.90;;;;;;4995074;28;1135;-64
2022/11/30 10:43:17;;;;;;;;;;;7.20;99.90;;;;;;4994604;28;1091;-64
2022/11/30 10:45:47;;;;;;;;;;;7.20;99.90;;;;;;5014106;28;1290;-64
2022/11/30 10:48:16;;;;;;;;;;;7.20;99.90;;;;;;5032399;28;1118;-64
2022/11/30 10:50:42;;;;;;;;;;;7.10;99.90;;;;;;5031853;28;1195;-64
2022/11/30 10:53:08;;;;;;;;;;;7.10;99.90;;;;;;5013840;28;1209;-64
2022/11/30 10:55:37;;;;;;;;;;;7.00;99.90;;;;;;5031069;28;1195;-64
2022/11/30 10:58:08;;;;;;;;;;;7.00;99.90;;;;;;5031137;28;1910;-64
2022/11/30 11:00:34;;;;;;;;;;;6.90;99.90;;;;;;5021579;28;1082;-64
2022/11/30 11:03:00;;;;;;;;;;;7.00;99.90;;;;;;5020294;28;1160;-64
2022/11/30 11:05:27;;;;;;;;;;;6.90;99.90;;;;;;5011357;28;1132;-64
2022/11/30 11:07:56;;;;;;;;;;;6.90;99.90;;;;;;5023287;28;1065;-64
2022/11/30 11:10:26;;;;;;;;;;;6.80;99.90;;;;;;5031515;28;1157;-64
2022/11/30 11:12:52;;;;;;;;;;;6.80;99.90;;;;;;5028709;28;1124;-64
2022/11/30 11:15:19;;;;;;;;;;;6.80;99.90;;;;;;4999877;28;2008;-64
2022/11/30 11:17:45;;;;;;;;;;;6.80;99.90;;;;;;5031406;28;1961;-64
2022/11/30 11:20:26;;;;;;;;;;;6.80;99.90;;;;;;5028496;28;1113;-64
2022/11/30 11:22:52;;;;;;;;;;;6.70;99.90;;;;;;5026347;28;1102;-64
2022/11/30 11:25:20;;;;;;;;;;;6.70;99.90;;;;;;5031533;28;1090;-63
2022/11/30 11:27:54;;;;;;;;;;;6.80;99.90;;;;;;5021932;28;1235;-64
2022/11/30 11:30:23;;;;;;;;;;;6.80;99.90;;;;;;5020571;28;1116;-64
2022/11/30 11:32:57;;;;;;;;;;;6.70;99.90;;;;;;5031298;28;1178;-64
2022/11/30 11:35:41;;;;;;;;;;;6.80;99.90;;;;;;5030533;28;1121;-63
2022/11/30 11:38:17;;;;;;;;;;;6.80;99.90;;;;;;5026804;28;1971;-63
2022/11/30 11:40:56;;;;;;;;;;;6.80;99.90;;;;;;5008190;28;3363;-64
2022/11/30 11:43:22;;;;;;;;;;;6.80;99.90;;;;;;4997748;28;3525;-64
2022/11/30 11:45:56;;;;;;;;;;;6.90;99.90;;;;;;5010509;28;3246;-64
2022/11/30 11:48:34;;;;;;;;;;;7.00;99.90;;;;;;5012374;28;1182;-64
2022/11/30 11:51:02;;;;;;;;;;;7.00;99.90;;;;;;5007357;28;3327;-64
2022/11/30 11:53:40;;;;;;;;;;;6.90;99.90;;;;;;5009428;28;3548;-64
2022/11/30 11:56:12;;;;;;;;;;;6.90;99.90;;;;;;5007587;28;1071;-64
2022/11/30 11:58:42;;;;;;;;;;;6.90;99.90;;;;;;5025152;28;1981;-64
2022/11/30 12:01:13;;;;;;;;;;;6.90;99.90;;;;;;5020725;28;1104;-64
2022/11/30 12:03:42;;;;;;;;;;;6.80;99.90;;;;;;5013958;28;1165;-64
2022/11/30 12:06:10;;;;;;;;;;;6.80;99.90;;;;;;5017469;28;1032;-64
2022/11/30 12:08:42;;;;;;;;;;;6.70;99.90;;;;;;5010476;28;1098;-63
2022/11/30 12:11:09;;;;;;;;;;;6.70;99.90;;;;;;5010763;28;1103;-63
2022/11/30 12:13:39;;;;;;;;;;;6.70;99.90;;;;;;5010192;28;1857;-64
2022/11/30 12:16:06;;;;;;;;;;;6.70;99.90;;;;;;5022180;28;1110;-64
2022/11/30 12:18:40;;;;;;;;;;;6.70;99.90;;;;;;5014772;28;1946;-63
2022/11/30 12:21:13;;;;;;;;;;;6.70;99.90;;;;;;5010766;28;1169;-64
2022/11/30 12:23:40;;;;;;;;;;;6.70;99.90;;;;;;5017101;28;1155;-64
2022/11/30 12:26:06;;;;;;;;;;;6.70;99.90;;;;;;5030021;28;1099;-64
2022/11/30 12:28:38;;;;;;;;;;;6.80;99.90;;;;;;5030505;28;1213;-64
2022/11/30 12:31:13;;;;;;;;;;;6.90;99.90;;;;;;5028585;28;1173;-64
2022/11/30 12:33:46;;;;;;;;;;;6.90;99.90;;;;;;5029524;28;1098;-64
2022/11/30 12:36:17;;;;;;;;;;;7.00;99.90;;;;;;5029983;28;1090;-64
2022/11/30 12:38:48;;;;;;;;;;;7.00;99.90;;;;;;5021485;28;1922;-64
2022/11/30 12:41:23;;;;;;;;;;;7.10;99.90;;;;;;5014410;28;1182;-64
2022/11/30 12:43:58;;;;;;;;;;;7.00;99.90;;;;;;5022796;28;1116;-64
2022/11/30 12:46:32;;;;;;;;;;;7.00;99.90;;;;;;5005151;28;1301;-64
2022/11/30 12:49:06;;;;;;;;;;;6.90;99.90;;;;;;5011183;28;1150;-64
2022/11/30 12:51:36;;;;;;;;;;;6.90;99.90;;;;;;5011998;28;1158;-63
2022/11/30 12:54:07;;;;;;;;;;;6.90;99.90;;;;;;5029981;28;1149;-64
2022/11/30 12:56:34;;;;;;;;;;;6.90;99.90;;;;;;5029188;28;1118;-64
2022/11/30 12:59:01;;;;;;;;;;;7.00;99.90;;;;;;5017182;28;1906;-64
2022/11/30 13:01:33;;;;;;;;;;;7.00;99.90;;;;;;5021713;28;1025;-64
2022/11/30 13:04:03;;;;;;;;;;;7.00;99.90;;;;;;5009839;28;1209;-64
2022/11/30 13:06:32;;;;;;;;;;;7.00;99.90;;;;;;4991408;28;1123;-64
2022/11/30 13:09:15;;;;;;;;;;;6.90;99.90;;;;;;5009901;28;1107;-63
2022/11/30 13:11:45;;;;;;;;;;;7.00;99.90;;;;;;5009185;28;1118;-64
2022/11/30 13:14:13;;;;;;;;;;;7.00;99.90;;;;;;5009714;28;2210;-64
2022/11/30 13:16:40;;;;;;;;;;;7.00;99.90;;;;;;5010205;28;1272;-64
2022/11/30 13:19:14;;;;;;;;;;;7.00;99.90;;;;;;5009016;28;1910;-63
2022/11/30 13:21:43;;;;;;;;;;;7.00;99.90;;;;;;5027322;28;1057;-64
2022/11/30 13:24:12;;;;;;;;;;;7.00;99.90;;;;;;5026372;28;1098;-64
2022/11/30 13:26:44;;;;;;;;;;;7.00;99.90;;;;;;5013988;28;3325;-64
2022/11/30 13:29:10;;;;;;;;;;;7.00;99.90;;;;;;5008149;28;3453;-64
2022/11/30 13:31:41;;;;;;;;;;;7.10;99.90;;;;;;5009070;28;3151;-64
2022/11/30 13:34:21;;;;;;;;;;;7.10;99.90;;;;;;5009991;28;1370;-64
2022/11/30 13:36:47;;;;;;;;;;;7.10;99.90;;;;;;5024735;28;1265;-63
2022/11/30 13:39:13;;;;;;;;;;;7.20;99.90;;;;;;5009159;28;1910;-64
2022/11/30 13:41:40;;;;;;;;;;;7.20;99.90;;;;;;5008864;28;1130;-64
2022/11/30 13:44:23;;;;;;;;;;;7.20;99.90;;;;;;5024850;28;1170;-64
2022/11/30 13:46:49;;;;;;;;;;;7.20;99.90;;;;;;5009889;28;1574;-63
2022/11/30 13:49:22;;;;;;;;;;;7.20;99.90;;;;;;5009176;28;1114;-63
2022/11/30 13:51:48;;;;;;;;;;;7.20;99.90;;;;;;5009596;28;1245;-64
2022/11/30 13:54:33;;;;;;;;;;;7.20;99.90;;;;;;4998889;28;1225;-64
2022/11/30 13:56:58;;;;;;;;;;;7.10;99.90;;;;;;5007643;28;1906;-64
2022/11/30 13:59:24;;;;;;;;;;;7.10;99.90;;;;;;5009942;28;1229;-64
2022/11/30 14:01:50;;;;;;;;;;;7.10;99.90;;;;;;5010358;28;1062;-64
2022/11/30 14:04:17;;;;;;;;;;;7.10;99.90;;;;;;4997345;28;1161;-64
2022/11/30 14:06:44;;;;;;;;;;;7.10;99.90;;;;;;5010164;28;1154;-64
2022/11/30 14:09:28;;;;;;;;;;;7.20;99.90;;;;;;5018494;28;1223;-64
2022/11/30 14:11:54;;;;;;;;;;;7.10;99.90;;;;;;4991153;28;1154;-64
2022/11/30 14:14:43;;;;;;;;;;;7.10;99.90;;;;;;4991496;28;1989;-64
2022/11/30 14:17:12;;;;;;;;;;;7.10;99.90;;;;;;5007986;28;1954;-64
2022/11/30 14:19:38;;;;;;;;;;;7.00;99.90;;;;;;5007629;28;1289;-64
2022/11/30 14:22:09;;;;;;;;;;;6.90;99.90;;;;;;5010686;28;1320;-64
2022/11/30 14:24:35;;;;;;;;;;;6.90;99.90;;;;;;5011887;28;1344;-64
2022/11/30 14:27:01;;;;;;;;;;;6.90;99.90;;;;;;5026073;28;985;-64
2022/11/30 14:29:30;;;;;;;;;;;6.90;99.90;;;;;;5028420;28;1173;-64
2022/11/30 14:31:58;;;;;;;;;;;6.80;99.90;;;;;;5010955;28;1150;-63
2022/11/30 14:34:27;;;;;;;;;;;6.80;99.90;;;;;;5013496;28;1279;-64
2022/11/30 14:36:56;;;;;;;;;;;6.80;99.90;;;;;;5008786;28;1096;-64
2022/11/30 14:39:24;;;;;;;;;;;6.80;99.90;;;;;;5008834;28;1106;-64
2022/11/30 14:41:50;;;;;;;;;;;6.70;99.90;;;;;;5008785;28;1090;-64
2022/11/30 14:44:15;;;;;;;;;;;6.70;99.90;;;;;;5010742;28;1122;-64
2022/11/30 14:46:41;;;;;;;;;;;6.70;99.90;;;;;;5010788;28;1291;-64
2022/11/30 14:49:13;;;;;;;;;;;6.70;99.90;;;;;;4991262;28;1107;-64